createdAt,value
2022-08-20T00:02:10.814Z,100950.38
2022-08-20T00:04:41.260Z,100951.97
2022-08-20T00:07:09.396Z,100955.78
2022-08-20T00:09:37.418Z,100960.78
2022-08-20T00:12:06.541Z,100973.09
2022-08-20T00:14:35.119Z,100971.13
2022-08-20T00:17:03.509Z,100969.50
2022-08-20T00:19:31.567Z,100971.69
2022-08-20T00:22:00.952Z,100969.84
2022-08-20T00:24:28.890Z,100968.28
2022-08-20T00:26:56.914Z,100976.81
2022-08-20T00:29:24.988Z,100973.50
2022-08-20T00:31:52.954Z,100977.41
2022-08-20T00:34:22.416Z,100976.81
2022-08-20T00:36:50.478Z,100973.59
2022-08-20T00:39:19.724Z,100973.88
2022-08-20T00:41:47.656Z,100977.84
2022-08-20T00:44:18.547Z,100982.72
2022-08-20T00:46:47.713Z,100970.25
2022-08-20T00:49:18.532Z,100973.72
2022-08-20T00:51:51.537Z,100971.84
2022-08-20T00:54:26.090Z,100971.72
2022-08-20T00:56:58.935Z,100973.06
2022-08-20T00:59:30.017Z,100972.03
2022-08-20T01:01:58.657Z,100972.97
2022-08-20T01:04:28.404Z,100977.59
2022-08-20T01:06:56.592Z,100976.63
2022-08-20T01:09:49.628Z,100978.97
2022-08-20T01:12:16.071Z,100988.94
2022-08-20T01:14:46.592Z,100988.72
2022-08-20T01:17:20.114Z,100982.97
2022-08-20T01:19:53.588Z,100991.41
2022-08-20T01:22:47.242Z,100983.47
2022-08-20T01:25:26.478Z,100987.72
2022-08-20T01:27:57.317Z,100988.19
2022-08-20T01:30:29.925Z,100982.34
2022-08-20T01:32:57.983Z,100989.72
2022-08-20T01:35:26.517Z,100989.22
2022-08-20T01:37:54.631Z,100993.47
2022-08-20T01:40:36.635Z,100987.22
2022-08-20T01:43:06.488Z,100992.63
2022-08-20T01:45:36.366Z,100988.56
2022-08-20T01:48:06.163Z,100992.38
2022-08-20T01:50:37.127Z,100997.06
2022-08-20T01:53:11.084Z,100996.78
2022-08-20T01:55:39.485Z,100992.25
2022-08-20T01:58:08.808Z,100992.41
2022-08-20T02:00:37.425Z,100994.00
2022-08-20T02:03:07.674Z,100998.19
2022-08-20T02:05:36.004Z,100997.41
2022-08-20T02:08:05.427Z,100999.16
2022-08-20T02:10:34.225Z,101001.78
2022-08-20T02:13:02.521Z,101011.25
2022-08-20T02:15:37.256Z,101002.84
2022-08-20T02:18:10.241Z,101007.16
2022-08-20T02:20:38.813Z,101007.19
2022-08-20T02:23:08.753Z,101007.50
2022-08-20T02:25:40.146Z,101005.53
2022-08-20T02:28:12.737Z,101009.78
2022-08-20T02:30:46.941Z,101010.13
2022-08-20T02:33:17.217Z,101014.91
2022-08-20T02:35:47.948Z,101016.69
2022-08-20T02:38:16.725Z,101015.56
2022-08-20T02:40:45.880Z,101019.88
2022-08-20T02:43:14.493Z,101016.66
2022-08-20T02:45:44.674Z,101015.16
2022-08-20T02:48:20.639Z,101022.50
2022-08-20T02:50:54.350Z,101021.56
2022-08-20T02:53:22.889Z,101021.38
2022-08-20T02:55:51.445Z,101024.03
2022-08-20T02:58:20.692Z,101022.00
2022-08-20T03:00:50.735Z,101015.53
2022-08-20T03:03:22.558Z,101025.75
2022-08-20T03:05:54.510Z,101008.00
2022-08-20T03:08:22.849Z,101007.44
2022-08-20T03:10:51.593Z,100997.50
2022-08-20T03:13:21.421Z,100999.22
2022-08-20T03:15:57.909Z,100996.34
2022-08-20T03:18:29.745Z,100991.09
2022-08-20T03:20:57.838Z,100992.41
2022-08-20T03:23:25.765Z,100999.53
2022-08-20T03:25:53.719Z,100998.19
2022-08-20T03:28:21.641Z,100987.03
2022-08-20T03:30:51.535Z,100993.72
2022-08-20T03:33:20.235Z,100989.13
2022-08-20T03:35:49.197Z,100986.09
2022-08-20T03:38:20.741Z,100989.41
2022-08-20T03:41:00.774Z,100987.56
2022-08-20T03:43:29.108Z,100980.78
2022-08-20T03:45:58.401Z,100987.88
2022-08-20T03:48:26.556Z,100988.19
2022-08-20T03:50:55.774Z,100984.97
2022-08-20T03:53:23.951Z,100987.66
2022-08-20T03:55:58.251Z,100999.31
2022-08-20T03:58:34.941Z,101003.00
2022-08-20T04:01:09.013Z,100997.75
2022-08-20T04:03:58.623Z,100994.72
2022-08-20T04:06:29.210Z,100995.31
2022-08-20T04:08:57.675Z,100996.81
2022-08-20T04:11:25.665Z,100998.88
2022-08-20T04:13:53.663Z,101003.28
2022-08-20T04:16:23.744Z,101004.78
2022-08-20T04:19:02.041Z,101013.47
2022-08-20T04:21:32.985Z,101007.78
2022-08-20T04:24:02.252Z,101014.88
2022-08-20T04:26:30.382Z,101018.75
2022-08-20T04:28:58.329Z,101018.03
2022-08-20T04:31:32.683Z,101013.22
2022-08-20T04:34:01.708Z,101011.34
2022-08-20T04:36:29.797Z,101007.78
2022-08-20T04:38:57.814Z,101002.78
2022-08-20T04:41:25.786Z,101013.69
2022-08-20T04:43:54.946Z,101016.41
2022-08-20T04:46:27.617Z,101014.34
2022-08-20T04:48:57.580Z,101010.84
2022-08-20T04:51:26.826Z,101012.31
2022-08-20T04:53:56.195Z,101022.50
2022-08-20T04:56:26.448Z,101031.66
2022-08-20T04:58:55.978Z,101028.53
2022-08-20T05:01:26.016Z,101028.75
2022-08-20T05:03:57.150Z,101025.63
2022-08-20T05:06:28.588Z,101028.19
2022-08-20T05:08:59.035Z,101032.91
2022-08-20T05:11:35.677Z,101043.88
2022-08-20T05:14:08.577Z,101039.28
2022-08-20T05:16:39.037Z,101051.53
2022-08-20T05:19:10.869Z,101046.94
2022-08-20T05:21:39.453Z,101045.34
2022-08-20T05:24:08.465Z,101040.28
2022-08-20T05:26:36.713Z,101045.41
2022-08-20T05:29:06.781Z,101042.22
2022-08-20T05:31:35.857Z,101034.16
2022-08-20T05:34:09.554Z,101043.13
2022-08-20T05:36:41.068Z,101037.19
2022-08-20T05:39:10.048Z,101038.75
2022-08-20T05:41:38.831Z,101042.22
2022-08-20T05:44:10.615Z,101044.06
2022-08-20T05:46:40.473Z,101036.28
2022-08-20T05:49:08.779Z,101048.13
2022-08-20T05:51:37.447Z,101046.66
2022-08-20T05:54:07.191Z,101049.91
2022-08-20T05:56:36.003Z,101059.19
2022-08-20T05:59:05.837Z,101055.94
2022-08-20T06:01:35.034Z,101061.66
2022-08-20T06:04:21.024Z,101060.53
2022-08-20T06:06:51.130Z,101054.00
2022-08-20T06:09:30.952Z,101057.75
2022-08-20T06:12:00.881Z,101057.38
2022-08-20T06:14:28.840Z,101057.81
2022-08-20T06:16:57.706Z,101063.06
2022-08-20T06:19:27.284Z,101063.97
2022-08-20T06:22:00.551Z,101067.88
2022-08-20T06:24:30.544Z,101069.09
2022-08-20T06:26:59.027Z,101072.94
2022-08-20T06:29:27.524Z,101084.41
2022-08-20T06:31:55.988Z,101075.97
2022-08-20T06:34:28.431Z,101081.97
2022-08-20T06:36:59.608Z,101089.03
2022-08-20T06:39:31.311Z,101086.38
2022-08-20T06:41:59.641Z,101093.75
2022-08-20T06:44:28.522Z,101096.78
2022-08-20T06:47:00.975Z,101098.34
2022-08-20T06:49:29.023Z,101089.28
2022-08-20T06:52:03.764Z,101090.34
2022-08-20T06:54:34.308Z,101085.88
2022-08-20T06:57:02.447Z,101083.47
2022-08-20T06:59:31.149Z,101085.25
2022-08-20T07:01:59.084Z,101083.28
2022-08-20T07:04:28.148Z,101094.41
2022-08-20T07:06:57.671Z,101100.88
2022-08-20T07:09:26.662Z,101103.56
2022-08-20T07:11:56.144Z,101105.84
2022-08-20T07:14:24.230Z,101099.53
2022-08-20T07:16:52.126Z,101101.25
2022-08-20T07:19:20.066Z,101112.03
2022-08-20T07:21:50.642Z,101114.38
2022-08-20T07:24:18.569Z,101118.78
2022-08-20T07:26:46.701Z,101127.28
2022-08-20T07:29:15.977Z,101120.66
2022-08-20T07:32:06.901Z,101133.06
2022-08-20T07:34:37.768Z,101130.94
2022-08-20T07:37:11.579Z,101136.91
2022-08-20T07:39:39.551Z,101138.69
2022-08-20T07:42:07.793Z,101138.34
2022-08-20T07:44:38.460Z,101136.59
2022-08-20T07:47:06.802Z,101134.53
2022-08-20T07:49:39.281Z,101129.94
2022-08-20T07:52:07.879Z,101131.47
2022-08-20T07:54:38.054Z,101134.84
2022-08-20T07:57:06.450Z,101130.97
2022-08-20T07:59:34.502Z,101121.34
2022-08-20T08:02:04.241Z,101124.91
2022-08-20T08:04:32.169Z,101133.03
2022-08-20T08:07:00.571Z,101128.13
2022-08-20T08:09:29.484Z,101139.72
2022-08-20T08:11:59.188Z,101128.97
2022-08-20T08:14:30.033Z,101136.66
2022-08-20T08:17:01.384Z,101137.00
2022-08-20T08:19:38.692Z,101149.78
2022-08-20T08:22:11.471Z,101146.41
2022-08-20T08:24:40.041Z,101147.88
2022-08-20T08:27:08.919Z,101152.31
2022-08-20T08:29:37.123Z,101149.38
2022-08-20T08:32:06.713Z,101152.72
2022-08-20T08:34:37.573Z,101155.84
2022-08-20T08:37:06.280Z,101159.19
2022-08-20T08:39:35.177Z,101157.31
2022-08-20T08:42:05.163Z,101148.94
2022-08-20T08:44:40.621Z,101144.72
2022-08-20T08:47:18.293Z,101151.59
2022-08-20T08:49:48.903Z,101148.25
2022-08-20T08:52:21.065Z,101148.47
2022-08-20T08:54:52.695Z,101154.72
2022-08-20T08:57:21.108Z,101154.72
2022-08-20T09:00:04.137Z,101151.25
2022-08-20T09:02:36.299Z,101154.25
2022-08-20T09:05:14.837Z,101158.84
2022-08-20T09:07:46.850Z,101161.31
2022-08-20T09:10:15.213Z,101164.78
2022-08-20T09:12:47.614Z,101168.41
2022-08-20T09:15:16.641Z,101173.75
2022-08-20T09:17:44.515Z,101180.31
2022-08-20T09:20:14.197Z,101172.69
2022-08-20T09:22:42.163Z,101176.66
2022-08-20T09:25:10.677Z,101180.59
2022-08-20T09:27:38.857Z,101184.22
2022-08-20T09:30:11.904Z,101178.38
2022-08-20T09:32:39.918Z,101174.78
2022-08-20T09:35:09.542Z,101172.59
2022-08-20T09:37:39.083Z,101179.50
2022-08-20T09:40:09.006Z,101172.44
2022-08-20T09:42:41.699Z,101180.25
2022-08-20T09:45:11.532Z,101176.97
2022-08-20T09:47:56.595Z,101181.38
2022-08-20T09:50:25.328Z,101177.50
2022-08-20T09:52:56.705Z,101173.88
2022-08-20T09:55:31.337Z,101177.53
2022-08-20T09:57:59.857Z,101178.53
2022-08-20T10:00:28.107Z,101177.16
2022-08-20T10:02:56.173Z,101171.44
2022-08-20T10:05:24.264Z,101177.53
2022-08-20T10:07:52.380Z,101175.91
2022-08-20T10:10:21.781Z,101174.31
2022-08-20T10:12:54.591Z,101174.91
2022-08-20T10:15:22.686Z,101169.13
2022-08-20T10:17:50.709Z,101176.81
2022-08-20T10:20:20.385Z,101181.66
2022-08-20T10:22:48.412Z,101179.69
2022-08-20T10:25:17.801Z,101177.25
2022-08-20T10:27:47.202Z,101174.00
2022-08-20T10:30:15.374Z,101173.44
2022-08-20T10:32:43.772Z,101183.63
2022-08-20T10:35:11.709Z,101175.88
2022-08-20T10:37:39.638Z,101184.06
2022-08-20T10:40:08.853Z,101175.13
2022-08-20T10:42:41.824Z,101176.59
2022-08-20T10:45:13.608Z,101168.53
2022-08-20T10:47:42.393Z,101173.81
2022-08-20T10:50:14.362Z,101176.28
2022-08-20T10:52:42.526Z,101174.34
2022-08-20T10:55:11.272Z,101171.41
2022-08-20T10:57:41.382Z,101180.97
2022-08-20T11:00:11.512Z,101168.09
2022-08-20T11:02:40.945Z,101180.72
2022-08-20T11:05:09.549Z,101185.53
2022-08-20T11:07:50.531Z,101183.69
2022-08-20T11:10:25.680Z,101185.63
2022-08-20T11:12:53.815Z,101183.56
2022-08-20T11:15:21.804Z,101192.81
2022-08-20T11:17:51.189Z,101182.38
2022-08-20T11:20:21.274Z,101184.06
2022-08-20T11:22:49.206Z,101193.50
2022-08-20T11:25:17.491Z,101197.63
2022-08-20T11:27:48.323Z,101198.53
2022-08-20T11:30:20.587Z,101190.84
2022-08-20T11:32:48.594Z,101194.09
2022-08-20T11:35:41.677Z,101188.84
2022-08-20T11:38:06.743Z,101191.13
2022-08-20T11:40:34.697Z,101194.63
2022-08-20T11:43:18.503Z,101190.34
2022-08-20T11:45:48.945Z,101189.50
2022-08-20T11:48:16.892Z,101198.53
2022-08-20T11:50:46.737Z,101188.50
2022-08-20T11:53:14.911Z,101190.66
2022-08-20T11:55:43.496Z,101199.94
2022-08-20T11:58:12.393Z,101198.84
2022-08-20T12:00:40.735Z,101198.13
2022-08-20T12:03:10.225Z,101204.50
2022-08-20T12:05:41.287Z,101196.56
2022-08-20T12:08:27.615Z,101209.28
2022-08-20T12:10:58.480Z,101196.13
2022-08-20T12:13:30.977Z,101197.88
2022-08-20T12:16:15.091Z,101199.56
2022-08-20T12:18:43.097Z,101198.03
2022-08-20T12:21:11.086Z,101198.53
2022-08-20T12:23:40.437Z,101203.34
2022-08-20T12:26:08.521Z,101203.28
2022-08-20T12:28:36.527Z,101199.09
2022-08-20T12:31:05.028Z,101201.59
2022-08-20T12:33:32.966Z,101198.25
2022-08-20T12:36:00.932Z,101208.44
2022-08-20T12:38:28.933Z,101203.44
2022-08-20T12:40:58.235Z,101209.09
2022-08-20T12:43:26.168Z,101209.13
2022-08-20T12:45:54.078Z,101211.41
2022-08-20T12:48:22.019Z,101203.63
2022-08-20T12:50:52.669Z,101212.19
2022-08-20T12:53:20.738Z,101206.06
2022-08-20T12:55:48.804Z,101204.38
2022-08-20T12:58:18.176Z,101199.84
2022-08-20T13:00:50.959Z,101208.56
2022-08-20T13:03:20.868Z,101207.50
2022-08-20T13:05:49.646Z,101218.69
2022-08-20T13:08:19.184Z,101214.44
2022-08-20T13:10:47.383Z,101207.66
2022-08-20T13:13:17.589Z,101216.88
2022-08-20T13:15:51.557Z,101218.69
2022-08-20T13:18:20.751Z,101219.56
2022-08-20T13:20:48.929Z,101218.03
2022-08-20T13:23:17.142Z,101224.75
2022-08-20T13:25:45.144Z,101216.44
2022-08-20T13:28:12.984Z,101232.19
2022-08-20T13:30:41.526Z,101224.94
2022-08-20T13:33:11.068Z,101223.78
2022-08-20T13:35:39.107Z,101226.97
2022-08-20T13:38:07.147Z,101223.34
2022-08-20T13:40:35.214Z,101229.16
2022-08-20T13:43:06.694Z,101223.63
2022-08-20T13:45:35.992Z,101230.38
2022-08-20T13:48:04.673Z,101230.69
2022-08-20T13:50:37.518Z,101232.06
2022-08-20T13:53:05.702Z,101232.91
2022-08-20T13:55:35.300Z,101240.75
2022-08-20T13:58:08.052Z,101245.63
2022-08-20T14:00:37.350Z,101238.47
2022-08-20T14:03:08.137Z,101242.56
2022-08-20T14:05:38.784Z,101239.81
2022-08-20T14:08:11.096Z,101230.94
2022-08-20T14:10:39.732Z,101237.28
2022-08-20T14:13:15.116Z,101226.19
2022-08-20T14:15:43.987Z,101226.44
2022-08-20T14:18:12.056Z,101230.81
2022-08-20T14:20:42.413Z,101226.19
2022-08-20T14:23:13.626Z,101222.53
2022-08-20T14:25:41.855Z,101222.50
2022-08-20T14:28:11.688Z,101223.19
2022-08-20T14:30:40.133Z,101228.78
2022-08-20T14:33:08.077Z,101229.50
2022-08-20T14:35:36.717Z,101233.97
2022-08-20T14:38:06.053Z,101233.63
2022-08-20T14:40:35.128Z,101225.13
2022-08-20T14:43:04.120Z,101231.53
2022-08-20T14:45:32.369Z,101236.59
2022-08-20T14:48:00.363Z,101231.31
2022-08-20T14:50:31.004Z,101233.97
2022-08-20T14:52:59.817Z,101238.88
2022-08-20T14:55:30.629Z,101241.75
2022-08-20T14:57:58.644Z,101239.50
2022-08-20T15:00:29.043Z,101238.66
2022-08-20T15:02:57.687Z,101243.75
2022-08-20T15:05:26.127Z,101235.84
2022-08-20T15:07:54.983Z,101232.56
2022-08-20T15:10:27.293Z,101243.91
2022-08-20T15:12:56.900Z,101237.34
2022-08-20T15:15:26.321Z,101239.19
2022-08-20T15:17:56.674Z,101239.34
2022-08-20T15:20:27.547Z,101241.13
2022-08-20T15:22:56.149Z,101246.50
2022-08-20T15:25:36.651Z,101239.34
2022-08-20T15:28:09.468Z,101237.25
2022-08-20T15:30:39.847Z,101243.19
2022-08-20T15:33:08.215Z,101234.81
2022-08-20T15:35:36.442Z,101233.13
2022-08-20T15:38:04.285Z,101239.50
2022-08-20T15:40:33.490Z,101242.03
2022-08-20T15:43:03.461Z,101235.47
2022-08-20T15:45:33.673Z,101243.25
2022-08-20T15:48:08.876Z,101250.34
2022-08-20T15:51:03.952Z,101241.19
2022-08-20T15:53:37.109Z,101244.22
2022-08-20T15:56:14.278Z,101230.13
2022-08-20T15:58:55.048Z,101244.88
2022-08-20T16:01:44.654Z,101245.53
2022-08-20T16:04:45.046Z,101237.66
2022-08-20T16:07:18.266Z,101234.53
2022-08-20T16:09:52.447Z,101243.66
2022-08-20T16:12:29.935Z,101242.72
2022-08-20T16:15:02.227Z,101245.81
2022-08-20T16:17:38.169Z,101242.44
2022-08-20T16:20:11.181Z,101242.91
2022-08-20T16:22:44.097Z,101239.16
2022-08-20T16:25:13.729Z,101241.22
2022-08-20T16:27:56.054Z,101244.97
2022-08-20T16:30:35.785Z,101255.78
2022-08-20T16:33:16.362Z,101253.34
2022-08-20T16:35:51.796Z,101250.25
2022-08-20T16:38:24.877Z,101249.41
2022-08-20T16:40:57.470Z,101247.91
2022-08-20T16:43:32.605Z,101248.28
2022-08-20T16:46:04.206Z,101251.19
2022-08-20T16:48:39.788Z,101255.31
2022-08-20T16:51:15.067Z,101253.25
2022-08-20T16:53:42.964Z,101271.59
2022-08-20T16:56:10.915Z,101253.91
2022-08-20T16:58:38.837Z,101250.16
2022-08-20T17:01:13.250Z,101261.63
2022-08-20T17:03:50.347Z,101259.81
2022-08-20T17:06:26.701Z,101259.09
2022-08-20T17:08:55.122Z,101255.53
2022-08-20T17:11:26.936Z,101251.28
2022-08-20T17:14:14.261Z,101250.53
2022-08-20T17:16:44.773Z,101252.03
2022-08-20T17:19:19.011Z,101253.72
2022-08-20T17:21:50.569Z,101263.69
2022-08-20T17:24:26.053Z,101253.91
2022-08-20T17:26:59.989Z,101264.91
2022-08-20T17:29:30.775Z,101266.31
2022-08-20T17:32:01.269Z,101263.69
2022-08-20T17:34:33.936Z,101256.16
2022-08-20T17:37:08.318Z,101259.72
2022-08-20T17:39:36.337Z,101265.66
2022-08-20T17:42:08.080Z,101267.28
2022-08-20T17:44:38.408Z,101267.09
2022-08-20T17:47:12.765Z,101272.44
2022-08-20T17:49:57.310Z,101273.59
2022-08-20T17:52:45.587Z,101285.78
2022-08-20T17:55:14.044Z,101290.69
2022-08-20T17:57:45.203Z,101293.75
2022-08-20T18:00:23.195Z,101302.56
2022-08-20T18:02:53.822Z,101305.44
2022-08-20T18:05:23.342Z,101307.31
2022-08-20T18:08:08.585Z,101308.47
2022-08-20T18:10:51.583Z,101307.56
2022-08-20T18:13:25.907Z,101305.31
2022-08-20T18:15:57.980Z,101305.38
2022-08-20T18:18:32.242Z,101309.19
2022-08-20T18:21:44.543Z,101307.78
2022-08-20T18:24:17.052Z,101294.16
2022-08-20T18:26:47.935Z,101298.31
2022-08-20T18:29:19.466Z,101299.53
2022-08-20T18:31:50.738Z,101292.28
2022-08-20T18:34:20.573Z,101301.38
2022-08-20T18:37:04.307Z,101301.63
2022-08-20T18:39:35.047Z,101293.03
2022-08-20T18:42:05.976Z,101298.91
2022-08-20T18:44:41.681Z,101295.81
2022-08-20T18:47:21.879Z,101299.56
2022-08-20T18:50:01.698Z,101311.56
2022-08-20T18:52:34.203Z,101314.06
2022-08-20T18:55:04.842Z,101306.31
2022-08-20T18:57:40.799Z,101309.88
2022-08-20T19:00:13.651Z,101313.28
2022-08-20T19:02:56.016Z,101322.34
2022-08-20T19:05:31.557Z,101322.47
2022-08-20T19:08:03.722Z,101319.94
2022-08-20T19:10:45.147Z,101324.34
2022-08-20T19:13:48.647Z,101324.47
2022-08-20T19:16:21.039Z,101324.88
2022-08-20T19:18:51.894Z,101329.31
2022-08-20T19:21:26.012Z,101328.47
2022-08-20T19:24:02.481Z,101322.66
2022-08-20T19:26:32.941Z,101323.19
2022-08-20T19:29:03.673Z,101322.25
2022-08-20T19:31:33.966Z,101318.47
2022-08-20T19:34:20.153Z,101326.09
2022-08-20T19:36:56.439Z,101320.88
2022-08-20T19:39:28.260Z,101324.38
2022-08-20T19:41:58.884Z,101317.72
2022-08-20T19:44:33.560Z,101320.03
2022-08-20T19:47:03.049Z,101326.06
2022-08-20T19:49:42.867Z,101327.91
2022-08-20T19:52:28.769Z,101324.53
2022-08-20T19:55:03.568Z,101326.56
2022-08-20T19:57:32.477Z,101328.13
2022-08-20T20:00:05.250Z,101325.66
2022-08-20T20:02:34.417Z,101327.00
2022-08-20T20:05:06.295Z,101327.66
2022-08-20T20:07:39.610Z,101321.53
2022-08-20T20:10:24.511Z,101319.69
2022-08-20T20:12:52.553Z,101326.00
2022-08-20T20:15:20.782Z,101329.00
2022-08-20T20:17:49.386Z,101317.66
2022-08-20T20:20:22.191Z,101329.56
2022-08-20T20:22:52.765Z,101324.03
2022-08-20T20:25:25.134Z,101333.41
2022-08-20T20:27:57.101Z,101320.19
2022-08-20T20:30:29.677Z,101324.78
2022-08-20T20:33:00.409Z,101324.63
2022-08-20T20:35:31.541Z,101327.00
2022-08-20T20:38:03.161Z,101324.78
2022-08-20T20:40:36.166Z,101318.63
2022-08-20T20:43:07.714Z,101322.19
2022-08-20T20:45:38.524Z,101335.81
2022-08-20T20:48:19.782Z,101328.97
2022-08-20T20:50:49.232Z,101327.25
2022-08-20T20:53:47.228Z,101326.25
2022-08-20T20:56:29.546Z,101327.63
2022-08-20T20:59:02.392Z,101334.31
2022-08-20T21:01:47.892Z,101325.94
2022-08-20T21:04:17.946Z,101328.53
2022-08-20T21:06:45.968Z,101323.34
2022-08-20T21:09:14.580Z,101320.38
2022-08-20T21:11:43.936Z,101324.28
2022-08-20T21:14:11.969Z,101319.13
2022-08-20T21:16:40.202Z,101319.63
2022-08-20T21:19:09.941Z,101316.38
2022-08-20T21:21:38.796Z,101316.69
2022-08-20T21:24:07.732Z,101309.97
2022-08-20T21:26:36.391Z,101311.19
2022-08-20T21:29:06.718Z,101311.31
2022-08-20T21:31:37.306Z,101318.38
2022-08-20T21:34:05.273Z,101316.69
2022-08-20T21:36:33.383Z,101309.72
2022-08-20T21:39:01.285Z,101313.47
2022-08-20T21:41:30.394Z,101316.38
2022-08-20T21:43:58.613Z,101313.72
2022-08-20T21:46:28.746Z,101314.22
2022-08-20T21:48:57.361Z,101303.59
2022-08-20T21:51:25.309Z,101307.50
2022-08-20T21:53:53.252Z,101308.88
2022-08-20T21:56:21.365Z,101305.69
2022-08-20T21:58:51.769Z,101300.69
2022-08-20T22:01:23.759Z,101304.47
2022-08-20T22:03:53.139Z,101291.53
2022-08-20T22:06:21.268Z,101292.06
2022-08-20T22:08:49.312Z,101298.06
2022-08-20T22:11:17.742Z,101292.34
2022-08-20T22:13:47.534Z,101289.56
2022-08-20T22:16:20.062Z,101288.59
2022-08-20T22:18:49.302Z,101288.50
2022-08-20T22:21:22.327Z,101286.84
2022-08-20T22:23:51.466Z,101289.22
2022-08-20T22:26:20.329Z,101293.22
2022-08-20T22:28:51.213Z,101288.13
2022-08-20T22:31:22.201Z,101287.47
2022-08-20T22:33:50.135Z,101284.13
2022-08-20T22:36:19.851Z,101291.53
2022-08-20T22:38:52.731Z,101290.25
2022-08-20T22:41:23.141Z,101289.91
2022-08-20T22:43:56.820Z,101295.38
2022-08-20T22:46:27.698Z,101300.53
2022-08-20T22:48:56.646Z,101295.75
2022-08-20T22:51:34.869Z,101300.88
2022-08-20T22:54:05.417Z,101300.47
2022-08-20T22:56:33.446Z,101291.84
2022-08-20T22:59:03.213Z,101297.41
2022-08-20T23:01:31.499Z,101296.78
2022-08-20T23:04:05.185Z,101306.81
2022-08-20T23:06:34.512Z,101300.81
2022-08-20T23:09:02.627Z,101302.38
2022-08-20T23:11:30.764Z,101302.97
2022-08-20T23:13:58.699Z,101303.31
2022-08-20T23:16:26.812Z,101303.59
2022-08-20T23:18:54.806Z,101296.72
2022-08-20T23:21:23.176Z,101300.44
2022-08-20T23:23:52.508Z,101295.44
2022-08-20T23:26:22.674Z,101296.97
2022-08-20T23:28:50.946Z,101294.22
2022-08-20T23:31:19.555Z,101296.66
2022-08-20T23:33:47.675Z,101298.81
2022-08-20T23:36:17.705Z,101300.78
2022-08-20T23:38:45.639Z,101294.97
2022-08-20T23:41:14.959Z,101295.19
2022-08-20T23:43:44.076Z,101296.66
2022-08-20T23:46:13.045Z,101292.78
2022-08-20T23:48:41.142Z,101296.38
2022-08-20T23:51:09.183Z,101297.13
2022-08-20T23:53:38.741Z,101299.25
2022-08-20T23:56:07.085Z,101302.44
2022-08-20T23:58:37.074Z,101296.66
